Dest Fox Harbr Too — ZCXB6 — position and weather

sailwx.info

Track history (hours):
 
Tides and Currents Weather Stations Pressure Air Temp Water Temp Dewpoint Dewpoint Depression Visibility Wind Speed Wind Dir Waves Ship Positions

Dest Fox Harbr Too

Last reported at 2015-Jan-02 18:20 UTC. Time now 2015-Jan-27 03:25 UTC.
Position N 18°18' W 064°52'.
Warning: this ship's position is 24 days out of date.

Length 50 m; draft 2.4 m.

Type: Pleasure craft. MMSI: 319370000.

Date/timePositionNaut miles runAvg speedWind from/ knotsBaromVisibWave heightAir tempDewpointWater temp
2015-Jan-02 18:20N 18°18' W 064°52'5 5.9
2015-Jan-02 17:33N 18°20' W 064°48'0 0.0
2015-Jan-02 16:33N 18°20' W 064°48'2 1.6
2015-Jan-02 15:33N 18°21' W 064°48'1 1.0
2015-Jan-02 14:29N 18°20' W 064°48'0 0.5
2015-Jan-02 13:33N 18°21' W 064°48'10 0.4
2015-Jan-01 12:15N 18°21' W 064°38'2 0.1
2014-Dec-31 16:32N 18°22' W 064°35'7 0.1
2014-Dec-29 14:09N 18°27' W 064°41'2 0.5
2014-Dec-29 09:17N 18°27' W 064°43'0 0.0
2014-Dec-29 08:11N 18°27' W 064°43'0 0.0
2014-Dec-29 07:11N 18°27' W 064°43'0 0.0
2014-Dec-29 06:11N 18°27' W 064°43'0 0.0
2014-Dec-29 04:29N 18°27' W 064°43'0 0.0
2014-Dec-29 01:17N 18°27' W 064°43'0 0.0
2014-Dec-29 00:17N 18°27' W 064°43'4 0.4
2014-Dec-28 15:31N 18°23' W 064°43'2 2.0
2014-Dec-28 14:27N 18°22' W 064°45'0 0.0
2014-Dec-28 13:15N 18°22' W 064°45'0 0.0
2014-Dec-28 12:33N 18°22' W 064°45'0 0.0
2014-Dec-28 11:33N 18°22' W 064°45'0 0.0
2014-Dec-28 10:33N 18°22' W 064°45'0 0.0
2014-Dec-28 09:33N 18°22' W 064°45'0 0.0
2014-Dec-28 08:33N 18°22' W 064°45'0 0.0
2014-Dec-28 07:27N 18°22' W 064°45'0 0.0
2014-Dec-28 06:33N 18°22' W 064°45'0 0.0
2014-Dec-28 05:33N 18°22' W 064°45'0 0.0
2014-Dec-28 04:33N 18°22' W 064°45'0 0.0
2014-Dec-28 03:33N 18°22' W 064°45'0 0.0
2014-Dec-28 02:27N 18°22' W 064°45'0 0.0
2014-Dec-28 01:33N 18°22' W 064°45'0 0.0
2014-Dec-28 00:33N 18°22' W 064°45'0 0.0
2014-Dec-27 23:33N 18°22' W 064°45'0 0.0
2014-Dec-27 22:33N 18°22' W 064°45'0 0.0
2014-Dec-27 21:33N 18°22' W 064°45'0 0.2
2014-Dec-27 20:31N 18°22' W 064°45'0 0.0
2014-Dec-27 19:33N 18°22' W 064°45'0 0.0
2014-Dec-27 18:33N 18°22' W 064°45'0 0.0
2014-Dec-27 17:33N 18°22' W 064°45'1 1.5
2014-Dec-27 16:33N 18°22' W 064°47'4 0.6
2014-Dec-27 10:27N 18°19' W 064°50'2 2.5
2014-Dec-27 09:34N 18°21' W 064°48'0 0.0
2014-Dec-27 08:33N 18°21' W 064°48'0 0.0
2014-Dec-27 07:33N 18°21' W 064°48'0 0.0
2014-Dec-27 06:34N 18°21' W 064°48'0 0.0
2014-Dec-27 05:33N 18°21' W 064°48'0 0.0
2014-Dec-27 04:34N 18°21' W 064°48'0 0.0
2014-Dec-27 03:34N 18°21' W 064°48'0 0.0
2014-Dec-27 02:33N 18°21' W 064°48'0 0.0
2014-Dec-27 01:33N 18°21' W 064°48'0 0.0
2014-Dec-27 00:34N 18°21' W 064°48'0 0.0
2014-Dec-26 23:33N 18°21' W 064°48'0 0.0
2014-Dec-26 22:34N 18°21' W 064°48'0 0.0
2014-Dec-26 21:34N 18°21' W 064°48'0 0.0
2014-Dec-26 20:33N 18°21' W 064°48'10 0.2
2014-Dec-24 21:16N 18°21' W 064°37'  
Track history (hours):
 
Tides and Currents Weather Stations Pressure Air Temp Water Temp Dewpoint Dewpoint Depression Visibility Wind Speed Wind Dir Waves Ship Positions

Dest Fox Harbr Too

Last reported at 2015-Jan-02 18:20 UTC. Time now 2015-Jan-27 03:25 UTC.
Position N 18°18' W 064°52'.
Warning: this ship's position is 24 days out of date.

Length 50 m; draft 2.4 m.

Type: Pleasure craft. MMSI: 319370000.

Date/timePositionNaut miles runAvg speedWind from/ knotsBaromVisibWave heightAir tempDewpointWater temp
2015-Jan-02 18:20N 18°18' W 064°52'5 5.9
2015-Jan-02 17:33N 18°20' W 064°48'0 0.0
2015-Jan-02 16:33N 18°20' W 064°48'2 1.6
2015-Jan-02 15:33N 18°21' W 064°48'1 1.0
2015-Jan-02 14:29N 18°20' W 064°48'0 0.5
2015-Jan-02 13:33N 18°21' W 064°48'10 0.4
2015-Jan-01 12:15N 18°21' W 064°38'2 0.1
2014-Dec-31 16:32N 18°22' W 064°35'7 0.1
2014-Dec-29 14:09N 18°27' W 064°41'2 0.5
2014-Dec-29 09:17N 18°27' W 064°43'0 0.0
2014-Dec-29 08:11N 18°27' W 064°43'0 0.0
2014-Dec-29 07:11N 18°27' W 064°43'0 0.0
2014-Dec-29 06:11N 18°27' W 064°43'0 0.0
2014-Dec-29 04:29N 18°27' W 064°43'0 0.0
2014-Dec-29 01:17N 18°27' W 064°43'0 0.0
2014-Dec-29 00:17N 18°27' W 064°43'4 0.4
2014-Dec-28 15:31N 18°23' W 064°43'2 2.0
2014-Dec-28 14:27N 18°22' W 064°45'0 0.0
2014-Dec-28 13:15N 18°22' W 064°45'0 0.0
2014-Dec-28 12:33N 18°22' W 064°45'0 0.0
2014-Dec-28 11:33N 18°22' W 064°45'0 0.0
2014-Dec-28 10:33N 18°22' W 064°45'0 0.0
2014-Dec-28 09:33N 18°22' W 064°45'0 0.0
2014-Dec-28 08:33N 18°22' W 064°45'0 0.0
2014-Dec-28 07:27N 18°22' W 064°45'0 0.0
2014-Dec-28 06:33N 18°22' W 064°45'0 0.0
2014-Dec-28 05:33N 18°22' W 064°45'0 0.0
2014-Dec-28 04:33N 18°22' W 064°45'0 0.0
2014-Dec-28 03:33N 18°22' W 064°45'0 0.0
2014-Dec-28 02:27N 18°22' W 064°45'0 0.0
2014-Dec-28 01:33N 18°22' W 064°45'0 0.0
2014-Dec-28 00:33N 18°22' W 064°45'0 0.0
2014-Dec-27 23:33N 18°22' W 064°45'0 0.0
2014-Dec-27 22:33N 18°22' W 064°45'0 0.0
2014-Dec-27 21:33N 18°22' W 064°45'0 0.2
2014-Dec-27 20:31N 18°22' W 064°45'0 0.0
2014-Dec-27 19:33N 18°22' W 064°45'0 0.0
2014-Dec-27 18:33N 18°22' W 064°45'0 0.0
2014-Dec-27 17:33N 18°22' W 064°45'1 1.5
2014-Dec-27 16:33N 18°22' W 064°47'4 0.6
2014-Dec-27 10:27N 18°19' W 064°50'2 2.5
2014-Dec-27 09:34N 18°21' W 064°48'0 0.0
2014-Dec-27 08:33N 18°21' W 064°48'0 0.0
2014-Dec-27 07:33N 18°21' W 064°48'0 0.0
2014-Dec-27 06:34N 18°21' W 064°48'0 0.0
2014-Dec-27 05:33N 18°21' W 064°48'0 0.0
2014-Dec-27 04:34N 18°21' W 064°48'0 0.0
2014-Dec-27 03:34N 18°21' W 064°48'0 0.0
2014-Dec-27 02:33N 18°21' W 064°48'0 0.0
2014-Dec-27 01:33N 18°21' W 064°48'0 0.0
2014-Dec-27 00:34N 18°21' W 064°48'0 0.0
2014-Dec-26 23:33N 18°21' W 064°48'0 0.0
2014-Dec-26 22:34N 18°21' W 064°48'0 0.0
2014-Dec-26 21:34N 18°21' W 064°48'0 0.0
2014-Dec-26 20:33N 18°21' W 064°48'10 0.2
2014-Dec-24 21:16N 18°21' W 064°37'  

Dump ship's entire track history